Time;durP1;ratioP1;P1;durP2;ratioP2;P2;SDS_P1;SDS_P2;PMS_P1;PMS_P2;Temp;Humidity;BMP_temperature;BMP_pressure;BME280_temperature;BME280_humidity;BME280_pressure;Samples;Min_cycle;Max_cycle;Signal;HPM_P1;HPM_P2
2021/11/16 00:02:53;;;;;;;24.65;14.68;;;12.60;99.90;;;;;;5065982;28;20040;-72
2021/11/16 00:05:58;;;;;;;24.95;14.10;;;12.60;99.90;;;;;;5068695;28;20039;-72
2021/11/16 00:09:04;;;;;;;27.65;15.38;;;12.60;99.90;;;;;;5063987;28;20063;-72
2021/11/16 00:12:08;;;;;;;29.00;16.70;;;12.50;99.90;;;;;;5060308;28;20043;-72
2021/11/16 00:15:13;;;;;;;23.02;13.82;;;12.50;99.90;;;;;;5060278;28;20040;-72
2021/11/16 00:18:18;;;;;;;24.05;14.18;;;12.50;99.90;;;;;;5060268;28;20032;-73
2021/11/16 00:21:25;;;;;;;25.55;14.45;;;12.50;99.90;;;;;;5064887;28;20044;-72
2021/11/16 00:24:39;;;;;;;25.48;14.65;;;12.50;99.90;;;;;;5063421;28;20388;-72
2021/11/16 00:27:45;;;;;;;24.95;13.70;;;12.50;99.90;;;;;;5061421;28;20549;-72
2021/11/16 00:30:50;;;;;;;22.10;13.18;;;12.40;99.90;;;;;;5068055;28;20063;-72
2021/11/16 00:33:54;;;;;;;28.88;15.63;;;12.50;99.90;;;;;;5068495;28;20060;-72
2021/11/16 00:36:58;;;;;;;22.02;13.75;;;12.50;99.90;;;;;;5060209;28;20502;-72
2021/11/16 00:40:07;;;;;;;31.30;14.65;;;12.50;99.90;;;;;;5062825;28;20517;-72
2021/11/16 00:43:11;;;;;;;21.83;14.25;;;12.50;99.90;;;;;;5068541;28;20036;-72
2021/11/16 00:46:16;;;;;;;27.90;14.75;;;12.50;99.90;;;;;;5057270;28;20229;-72
2021/11/16 00:49:21;;;;;;;25.38;14.60;;;12.50;99.90;;;;;;5058930;28;20043;-72
2021/11/16 00:52:26;;;;;;;16.08;10.35;;;12.50;99.90;;;;;;5050683;28;20387;-72
2021/11/16 00:55:30;;;;;;;18.80;9.65;;;12.70;99.90;;;;;;5060561;28;20490;-72
2021/11/16 00:58:35;;;;;;;25.17;14.20;;;13.10;99.90;;;;;;5060324;28;20056;-72
2021/11/16 01:01:39;;;;;;;26.58;14.93;;;13.20;99.90;;;;;;5057789;28;20387;-72
2021/11/16 01:04:48;;;;;;;30.80;15.90;;;12.90;99.90;;;;;;5067343;28;20059;-72
2021/11/16 01:07:52;;;;;;;26.13;15.18;;;12.70;99.90;;;;;;5065504;28;20067;-72
2021/11/16 01:10:57;;;;;;;24.20;14.80;;;12.60;99.90;;;;;;5068613;28;20387;-72
2021/11/16 01:14:01;;;;;;;25.08;13.80;;;12.50;99.90;;;;;;5068709;28;20048;-72
2021/11/16 01:17:05;;;;;;;21.33;13.48;;;12.40;99.90;;;;;;5055338;28;20254;-72
2021/11/16 01:20:11;;;;;;;21.60;13.52;;;12.40;99.90;;;;;;5057330;28;20048;-72
2021/11/16 01:23:18;;;;;;;25.52;15.07;;;12.40;99.90;;;;;;5062101;28;20035;-72
2021/11/16 01:26:22;;;;;;;27.17;14.95;;;12.30;99.90;;;;;;5063276;28;20044;-73
2021/11/16 01:29:26;;;;;;;26.45;15.15;;;12.30;99.90;;;;;;5058282;28;20593;-72
2021/11/16 01:35:43;;;;;;;24.52;13.48;;;12.20;99.90;;;;;;5065146;28;20397;-72
2021/11/16 01:38:50;;;;;;;20.27;13.70;;;12.50;99.90;;;;;;5051495;28;20526;-73
2021/11/16 01:41:55;;;;;;;22.83;13.40;;;12.50;99.90;;;;;;5060127;28;20047;-72
2021/11/16 01:45:00;;;;;;;25.08;14.57;;;12.40;99.90;;;;;;5061492;28;20048;-72
2021/11/16 01:48:05;;;;;;;25.00;14.75;;;12.30;99.90;;;;;;5061133;28;20048;-72
2021/11/16 01:51:09;;;;;;;24.02;13.20;;;12.20;99.90;;;;;;5056417;28;20043;-72
2021/11/16 01:54:14;;;;;;;24.80;15.38;;;12.30;99.90;;;;;;5059702;28;20499;-72
2021/11/16 01:57:18;;;;;;;28.90;15.38;;;12.20;99.90;;;;;;5055422;28;20051;-72
2021/11/16 02:00:30;;;;;;;30.70;16.30;;;12.20;99.90;;;;;;5064556;28;20052;-72
2021/11/16 02:03:34;;;;;;;33.22;16.13;;;12.20;99.90;;;;;;5065072;28;20056;-72
2021/11/16 02:06:40;;;;;;;29.15;15.52;;;12.10;99.90;;;;;;5058154;28;20063;-72
2021/11/16 02:09:44;;;;;;;28.85;16.10;;;12.10;99.90;;;;;;5059431;28;20043;-72
2021/11/16 02:12:48;;;;;;;33.83;16.13;;;12.10;99.90;;;;;;5060704;28;20482;-72
2021/11/16 02:15:52;;;;;;;31.13;16.65;;;12.00;99.90;;;;;;5051536;28;20403;-72
2021/11/16 02:18:56;;;;;;;26.08;16.70;;;11.70;99.90;;;;;;5063911;28;20375;-72
2021/11/16 02:22:01;;;;;;;27.30;15.95;;;11.80;99.90;;;;;;5068390;28;20048;-72
2021/11/16 02:25:05;;;;;;;30.58;17.75;;;11.80;99.90;;;;;;5059434;28;20036;-72
2021/11/16 02:28:09;;;;;;;31.85;16.90;;;11.90;99.90;;;;;;5057626;28;20494;-72
2021/11/16 02:31:15;;;;;;;26.73;17.38;;;11.90;99.90;;;;;;5057362;28;20048;-72
2021/11/16 02:34:19;;;;;;;28.45;17.65;;;11.80;99.90;;;;;;5061499;28;20063;-73
2021/11/16 02:37:24;;;;;;;28.08;15.63;;;11.80;99.90;;;;;;5054120;28;20048;-72
2021/11/16 02:40:28;;;;;;;26.30;16.35;;;11.80;99.90;;;;;;5060138;28;20503;-72
2021/11/16 02:43:35;;;;;;;27.98;14.63;;;11.80;99.90;;;;;;5064717;28;20052;-72
2021/11/16 02:46:39;;;;;;;26.58;13.57;;;11.90;99.90;;;;;;5057623;28;20582;-72
2021/11/16 02:49:43;;;;;;;21.30;12.10;;;11.90;99.90;;;;;;5063606;28;20421;-72
2021/11/16 02:52:48;;;;;;;22.90;13.82;;;12.10;99.90;;;;;;5064132;28;20043;-72
2021/11/16 02:55:53;;;;;;;23.10;12.32;;;12.20;99.90;;;;;;5057643;28;20044;-72
2021/11/16 02:58:57;;;;;;;19.63;11.60;;;12.30;99.90;;;;;;5058828;28;20047;-72
2021/11/16 03:02:02;;;;;;;20.65;12.02;;;12.50;99.90;;;;;;5060119;28;20040;-72
2021/11/16 03:05:07;;;;;;;30.08;15.23;;;12.60;99.90;;;;;;5063222;28;20086;-72
2021/11/16 03:08:21;;;;;;;29.45;16.17;;;12.50;99.90;;;;;;5057387;28;20040;-72
2021/11/16 03:11:25;;;;;;;29.35;15.88;;;12.10;99.90;;;;;;5062131;28;20478;-72
2021/11/16 03:14:30;;;;;;;32.90;18.10;;;12.10;99.90;;;;;;5058124;28;20508;-72
2021/11/16 03:17:34;;;;;;;27.42;17.17;;;11.80;99.90;;;;;;5058210;28;20064;-72
2021/11/16 03:20:39;;;;;;;31.02;17.20;;;11.80;99.90;;;;;;5061447;28;20051;-72
2021/11/16 03:23:45;;;;;;;29.05;18.23;;;11.80;99.90;;;;;;5059120;28;20534;-72
2021/11/16 03:26:50;;;;;;;31.23;16.67;;;11.80;99.90;;;;;;5070805;28;20505;-72
2021/11/16 03:29:57;;;;;;;29.20;17.15;;;11.80;99.90;;;;;;5063183;28;20387;-72
2021/11/16 03:33:04;;;;;;;34.42;17.80;;;11.70;99.90;;;;;;5069140;28;20044;-72
2021/11/16 03:36:09;;;;;;;39.28;18.73;;;11.70;99.90;;;;;;5055715;28;20112;-72
2021/11/16 03:39:13;;;;;;;34.92;16.48;;;11.60;99.90;;;;;;5062991;28;20040;-72
2021/11/16 03:42:17;;;;;;;33.00;18.23;;;11.60;99.90;;;;;;5060994;28;20067;-72
2021/11/16 03:45:25;;;;;;;33.25;18.02;;;11.60;99.90;;;;;;5061705;28;20040;-72
2021/11/16 03:48:30;;;;;;;31.38;18.23;;;11.60;99.90;;;;;;5060629;28;20060;-72
2021/11/16 03:51:34;;;;;;;29.88;17.98;;;11.60;99.90;;;;;;5064789;28;20047;-72
2021/11/16 03:54:38;;;;;;;33.13;18.45;;;11.70;99.90;;;;;;5063729;28;20060;-72
2021/11/16 03:57:42;;;;;;;30.85;15.27;;;11.70;99.90;;;;;;5060502;28;20048;-72
2021/11/16 04:01:08;;;;;;;32.17;16.38;;;12.10;99.90;;;;;;5064089;28;20399;-72
2021/11/16 04:04:13;;;;;;;30.77;15.40;;;12.10;99.90;;;;;;5057877;28;20497;-72
2021/11/16 04:07:17;;;;;;;27.80;16.65;;;12.00;99.90;;;;;;5058577;28;20036;-72
2021/11/16 04:10:23;;;;;;;28.02;17.42;;;12.00;99.90;;;;;;5059938;28;20048;-72
2021/11/16 04:13:26;;;;;;;40.40;18.55;;;11.90;99.90;;;;;;5060699;28;20052;-72
2021/11/16 04:16:30;;;;;;;31.63;17.08;;;11.80;99.90;;;;;;5062559;28;20039;-72
2021/11/16 04:19:35;;;;;;;34.80;17.83;;;11.80;99.90;;;;;;5059540;28;20048;-72
2021/11/16 04:22:40;;;;;;;30.77;16.48;;;11.80;99.90;;;;;;5064031;28;20052;-72
2021/11/16 04:25:45;;;;;;;32.92;16.30;;;11.80;99.90;;;;;;5067474;28;20043;-72
2021/11/16 04:28:49;;;;;;;26.25;16.88;;;11.70;99.90;;;;;;5060913;28;20056;-73
2021/11/16 04:31:53;;;;;;;27.67;16.52;;;11.80;99.90;;;;;;5069432;28;20044;-72
2021/11/16 04:34:58;;;;;;;29.30;17.67;;;11.70;99.90;;;;;;5067534;28;20096;-72
2021/11/16 04:38:04;;;;;;;26.80;16.52;;;11.80;99.90;;;;;;5056788;28;20055;-72
2021/11/16 04:41:08;;;;;;;31.02;17.92;;;11.70;99.90;;;;;;5060019;28;20052;-72
2021/11/16 04:44:12;;;;;;;28.70;17.35;;;11.70;99.90;;;;;;5056992;28;20048;-72
2021/11/16 04:47:24;;;;;;;29.88;17.40;;;11.80;99.90;;;;;;5059824;28;20048;-72
2021/11/16 05:03:16;;;;;;;30.88;17.88;;;11.40;99.90;;;;;;5057052;28;20108;-72
2021/11/16 05:06:21;;;;;;;31.15;17.08;;;11.50;99.90;;;;;;5059042;28;20032;-72
2021/11/16 05:09:25;;;;;;;30.85;17.23;;;11.60;99.90;;;;;;5059063;28;20048;-73
2021/11/16 05:12:32;;;;;;;29.25;16.88;;;11.60;99.90;;;;;;5063164;28;20075;-72
2021/11/16 05:15:40;;;;;;;30.90;17.77;;;11.60;99.90;;;;;;5066391;28;20047;-72
2021/11/16 05:18:44;;;;;;;33.42;16.67;;;11.60;99.90;;;;;;5059155;28;20055;-72
2021/11/16 05:21:50;;;;;;;25.67;16.23;;;11.60;99.90;;;;;;5061481;28;20257;-72
2021/11/16 05:24:54;;;;;;;34.20;17.73;;;11.60;99.90;;;;;;5065527;28;20043;-72
2021/11/16 05:27:59;;;;;;;26.50;17.08;;;11.70;99.90;;;;;;5066642;28;20047;-73
2021/11/16 05:31:04;;;;;;;26.33;16.33;;;11.60;99.90;;;;;;5060993;28;20038;-72
2021/11/16 05:34:08;;;;;;;34.35;17.15;;;11.70;99.90;;;;;;5060391;28;20047;-72
2021/11/16 05:37:12;;;;;;;31.95;18.55;;;11.70;99.90;;;;;;5065897;28;20519;-73
2021/11/16 05:40:16;;;;;;;32.33;17.35;;;11.70;99.90;;;;;;5065058;28;20052;-72
2021/11/16 05:43:20;;;;;;;25.20;16.42;;;11.70;99.90;;;;;;5061676;28;20268;-72
2021/11/16 05:46:24;;;;;;;30.98;18.38;;;11.70;99.90;;;;;;5061460;28;20059;-72
2021/11/16 05:49:32;;;;;;;35.00;19.58;;;11.70;99.90;;;;;;5062203;28;20048;-73
2021/11/16 05:52:37;;;;;;;37.42;18.75;;;11.70;99.90;;;;;;5061166;28;20337;-73
2021/11/16 05:55:43;;;;;;;28.52;18.38;;;11.70;99.90;;;;;;5061052;28;20063;-72
2021/11/16 05:58:52;;;;;;;30.83;17.13;;;11.60;99.90;;;;;;5064015;28;20044;-73
2021/11/16 06:01:56;;;;;;;38.72;20.25;;;11.50;99.90;;;;;;5067501;28;20047;-72
2021/11/16 06:05:00;;;;;;;35.22;19.17;;;11.50;99.90;;;;;;5060499;28;20040;-73
2021/11/16 06:08:06;;;;;;;30.67;17.10;;;11.40;99.90;;;;;;5060779;28;20047;-72
2021/11/16 06:11:11;;;;;;;38.75;19.52;;;11.40;99.90;;;;;;5055596;28;20048;-72
2021/11/16 06:14:15;;;;;;;30.23;16.80;;;11.40;99.90;;;;;;5059522;28;20400;-72
2021/11/16 06:17:20;;;;;;;33.97;17.23;;;11.40;99.90;;;;;;5058994;28;20517;-72
2021/11/16 06:20:26;;;;;;;29.85;17.73;;;11.40;99.90;;;;;;5062358;28;20056;-72
2021/11/16 06:23:33;;;;;;;33.17;17.98;;;11.40;99.90;;;;;;5058604;28;20407;-73
2021/11/16 06:26:37;;;;;;;29.15;18.77;;;11.30;99.90;;;;;;5059162;28;20486;-72
2021/11/16 06:29:41;;;;;;;36.63;20.02;;;11.30;99.90;;;;;;5052674;28;20048;-72
2021/11/16 06:32:45;;;;;;;34.55;18.17;;;11.30;99.90;;;;;;5064216;28;20051;-72
2021/11/16 06:35:50;;;;;;;32.03;18.25;;;11.30;99.90;;;;;;5059027;28;20056;-72
2021/11/16 06:38:54;;;;;;;35.78;19.63;;;11.30;99.90;;;;;;5059759;28;20063;-72
2021/11/16 06:42:01;;;;;;;33.55;18.70;;;11.30;99.90;;;;;;5057763;28;20541;-72
2021/11/16 06:45:05;;;;;;;34.97;19.50;;;11.20;99.90;;;;;;5063278;28;20052;-72
2021/11/16 06:48:09;;;;;;;37.10;19.13;;;11.30;99.90;;;;;;5053370;28;20047;-72
2021/11/16 06:51:13;;;;;;;36.33;17.90;;;11.30;99.90;;;;;;5058393;28;20044;-72
2021/11/16 06:54:23;;;;;;;37.15;20.17;;;11.30;99.90;;;;;;5066673;28;20087;-73
2021/11/16 06:57:29;;;;;;;32.03;18.60;;;11.30;99.90;;;;;;5068276;28;20047;-72
2021/11/16 07:00:33;;;;;;;38.42;20.05;;;11.30;99.90;;;;;;5061617;28;20490;-72
2021/11/16 07:03:39;;;;;;;38.67;20.27;;;11.30;99.90;;;;;;5061983;28;20072;-72
2021/11/16 07:06:48;;;;;;;29.70;18.23;;;11.30;99.90;;;;;;5061393;28;20064;-72
2021/11/16 07:09:53;;;;;;;36.03;19.73;;;11.30;99.90;;;;;;5062382;28;20043;-72
2021/11/16 07:13:06;;;;;;;36.40;19.48;;;11.30;99.90;;;;;;5058863;28;20495;-72
2021/11/16 07:16:12;;;;;;;34.30;20.08;;;11.30;99.90;;;;;;5061102;28;20047;-72
2021/11/16 07:19:16;;;;;;;34.03;19.85;;;11.40;99.90;;;;;;5060338;28;20048;-72
2021/11/16 07:22:23;;;;;;;40.72;21.23;;;11.40;99.90;;;;;;5063379;28;20060;-72
2021/11/16 07:25:28;;;;;;;39.80;21.30;;;11.30;99.90;;;;;;5069792;28;20392;-72
2021/11/16 07:28:32;;;;;;;42.58;20.92;;;11.30;99.90;;;;;;5064214;28;20059;-72
2021/11/16 07:31:41;;;;;;;37.70;19.85;;;11.40;99.90;;;;;;5067891;28;20047;-72
2021/11/16 07:34:45;;;;;;;40.90;19.65;;;11.50;99.90;;;;;;5064862;28;20383;-72
2021/11/16 07:37:56;;;;;;;40.03;20.67;;;11.60;99.90;;;;;;5067140;28;20047;-72
2021/11/16 07:41:00;;;;;;;39.70;21.85;;;11.70;99.90;;;;;;5064891;28;20052;-72
2021/11/16 07:44:13;;;;;;;35.53;19.92;;;11.90;99.90;;;;;;5059857;28;20044;-73
2021/11/16 07:47:17;;;;;;;30.27;17.95;;;12.10;99.90;;;;;;5065580;28;20384;-73
2021/11/16 07:50:31;;;;;;;33.28;18.88;;;12.20;99.90;;;;;;5062115;28;20035;-73
2021/11/16 07:53:44;;;;;;;40.92;20.35;;;12.30;99.90;;;;;;5065200;28;20490;-72
2021/11/16 07:56:48;;;;;;;33.35;18.10;;;12.30;99.90;;;;;;5061013;28;20380;-72
2021/11/16 07:59:55;;;;;;;32.55;17.92;;;12.40;99.90;;;;;;5062128;28;20051;-73
2021/11/16 08:03:04;;;;;;;35.97;19.83;;;12.30;99.90;;;;;;5060872;28;20060;-72
2021/11/16 08:12:38;;;;;;;44.97;25.23;;;12.00;99.90;;;;;;5065351;28;20055;-72
2021/11/16 08:15:44;;;;;;;48.10;24.27;;;11.80;99.90;;;;;;5064886;28;20043;-72
2021/11/16 08:19:00;;;;;;;44.60;23.85;;;11.70;99.90;;;;;;5063506;28;20043;-72
2021/11/16 08:22:11;;;;;;;45.15;24.73;;;11.60;99.90;;;;;;5059964;28;20060;-72
2021/11/16 08:25:21;;;;;;;56.38;26.42;;;11.60;99.90;;;;;;5057882;28;20513;-72
2021/11/16 08:28:26;;;;;;;40.00;22.92;;;11.60;99.90;;;;;;5064467;28;20036;-72
2021/11/16 08:31:37;;;;;;;54.63;27.35;;;11.60;99.90;;;;;;5061393;28;20052;-72
2021/11/16 08:34:46;;;;;;;59.97;29.50;;;11.50;99.90;;;;;;5061977;28;20051;-72
2021/11/16 08:38:00;;;;;;;61.65;29.30;;;11.50;99.90;;;;;;5062989;28;20044;-72
2021/11/16 08:41:05;;;;;;;58.08;27.83;;;11.40;99.90;;;;;;5059347;28;20482;-72
2021/11/16 08:44:19;;;;;;;51.13;26.10;;;11.30;99.90;;;;;;5058868;28;20095;-72
2021/11/16 08:47:48;;;;;;;53.90;26.98;;;11.20;99.90;;;;;;5062111;28;20475;-71
2021/11/16 08:50:59;;;;;;;45.55;25.80;;;11.30;99.90;;;;;;5059454;28;20047;-72
2021/11/16 08:54:03;;;;;;;53.50;27.05;;;11.40;99.90;;;;;;5063043;28;20043;-72
2021/11/16 08:57:18;;;;;;;50.50;27.55;;;11.30;99.90;;;;;;5057998;28;20039;-72
2021/11/16 09:00:27;;;;;;;50.97;25.98;;;11.40;99.90;;;;;;5058341;28;20075;-72
2021/11/16 09:03:41;;;;;;;41.70;23.45;;;11.60;99.90;;;;;;5064749;28;20043;-72
2021/11/16 09:06:45;;;;;;;43.58;23.08;;;11.80;99.90;;;;;;5063770;28;20036;-72
2021/11/16 09:09:55;;;;;;;41.13;22.95;;;12.20;99.90;;;;;;5064861;28;20475;-72
2021/11/16 09:13:04;;;;;;;39.10;23.08;;;12.10;99.90;;;;;;5056700;28;20044;-72
2021/11/16 09:16:21;;;;;;;34.80;20.30;;;12.30;99.90;;;;;;5059337;28;20039;-72
2021/11/16 09:19:27;;;;;;;29.95;19.30;;;12.50;99.90;;;;;;5059874;28;20055;-72
2021/11/16 09:22:36;;;;;;;33.20;20.52;;;12.70;99.90;;;;;;5059779;28;20491;-72
2021/11/16 09:25:40;;;;;;;33.35;19.45;;;12.80;99.90;;;;;;5059814;28;20056;-72
2021/11/16 09:28:58;;;;;;;36.60;19.67;;;13.00;99.90;;;;;;5061048;28;20495;-72
2021/11/16 09:32:09;;;;;;;39.95;21.27;;;12.80;99.90;;;;;;5058732;28;20071;-72
2021/11/16 09:35:12;;;;;;;29.13;19.70;;;12.50;99.90;;;;;;5053713;28;20039;-72
2021/11/16 09:38:54;;;;;;;38.35;21.40;;;12.70;99.90;;;;;;5055743;28;20506;-72
2021/11/16 09:42:04;;;;;;;40.58;21.38;;;12.60;99.90;;;;;;5057694;28;20031;-72
2021/11/16 09:45:15;;;;;;;43.60;24.83;;;12.30;99.90;;;;;;5057823;28;20036;-72
2021/11/16 09:48:26;;;;;;;43.33;24.35;;;11.80;99.90;;;;;;5057572;28;20059;-72
2021/11/16 09:51:30;;;;;;;47.15;25.08;;;11.80;99.90;;;;;;5060834;28;20043;-72
2021/11/16 09:54:53;;;;;;;45.03;24.75;;;11.50;99.90;;;;;;5062082;28;20380;-72
2021/11/16 09:58:04;;;;;;;44.65;24.63;;;11.40;99.90;;;;;;5063762;28;20495;-72
2021/11/16 10:01:08;;;;;;;41.63;24.40;;;11.50;99.90;;;;;;5062244;28;20448;-72
2021/11/16 10:04:22;;;;;;;44.38;26.05;;;11.60;99.90;;;;;;5061753;28;20387;-72
2021/11/16 10:07:27;;;;;;;41.47;23.45;;;11.60;99.90;;;;;;5058242;28;20082;-72
2021/11/16 10:10:36;;;;;;;42.38;24.88;;;11.60;99.90;;;;;;5056902;28;20498;-72
2021/11/16 10:13:40;;;;;;;43.75;24.33;;;11.40;99.90;;;;;;5054288;28;20418;-72
2021/11/16 10:16:46;;;;;;;49.75;27.00;;;11.30;99.90;;;;;;5054940;28;20056;-72
2021/11/16 10:19:50;;;;;;;52.85;27.92;;;11.20;99.90;;;;;;5059336;28;20040;-72
2021/11/16 10:22:57;;;;;;;54.85;27.73;;;11.30;99.90;;;;;;5060257;28;20051;-72
2021/11/16 10:26:03;;;;;;;50.00;28.00;;;11.20;99.90;;;;;;5058723;28;20509;-72
2021/11/16 10:29:16;;;;;;;45.90;25.75;;;11.40;99.90;;;;;;5061584;28;20048;-72
2021/11/16 10:32:21;;;;;;;43.92;27.15;;;11.40;99.90;;;;;;5062690;28;20048;-72
2021/11/16 10:35:26;;;;;;;51.55;27.77;;;11.30;99.90;;;;;;5060327;28;20056;-72
2021/11/16 10:38:34;;;;;;;51.42;29.08;;;11.30;99.90;;;;;;5058320;28;20051;-72
2021/11/16 10:41:41;;;;;;;55.30;29.73;;;11.20;99.90;;;;;;5060665;28;20052;-72
2021/11/16 10:44:58;;;;;;;46.20;26.55;;;11.20;99.90;;;;;;5058856;28;20079;-72
2021/11/16 10:48:08;;;;;;;40.78;24.33;;;11.40;99.90;;;;;;5066481;28;20048;-72
2021/11/16 10:51:13;;;;;;;46.00;26.17;;;11.50;99.90;;;;;;5069118;28;20101;-71
2021/11/16 10:54:18;;;;;;;43.25;24.25;;;11.50;99.90;;;;;;5065754;28;20052;-72
2021/11/16 10:57:23;;;;;;;50.03;26.60;;;11.50;99.90;;;;;;5058062;28;20040;-72
2021/11/16 11:00:37;;;;;;;46.22;27.02;;;11.30;99.90;;;;;;5057365;28;20051;-72
2021/11/16 11:03:48;;;;;;;40.33;24.33;;;11.30;99.90;;;;;;5059115;28;20052;-72
2021/11/16 11:06:53;;;;;;;43.45;25.58;;;11.50;99.90;;;;;;5059216;28;20032;-72
2021/11/16 11:09:57;;;;;;;38.08;23.95;;;11.70;99.90;;;;;;5059443;28;20495;-71
2021/11/16 11:13:22;;;;;;;33.95;21.05;;;11.80;99.90;;;;;;5058905;28;20048;-72
2021/11/16 11:16:27;;;;;;;37.55;22.52;;;11.90;99.90;;;;;;5060485;28;20056;-71
2021/11/16 11:19:35;;;;;;;37.45;22.88;;;11.90;99.90;;;;;;5056601;28;20602;-72
2021/11/16 11:22:43;;;;;;;37.78;21.98;;;11.80;99.90;;;;;;5064044;28;20047;-71
2021/11/16 11:25:49;;;;;;;33.50;21.00;;;11.70;99.90;;;;;;5064725;28;20047;-71
2021/11/16 11:29:12;;;;;;;32.08;20.15;;;11.80;99.90;;;;;;5054283;28;20400;-71
2021/11/16 11:32:22;;;;;;;29.23;18.48;;;11.90;99.90;;;;;;5061273;28;20392;-71
2021/11/16 11:35:28;;;;;;;24.63;16.20;;;12.30;99.90;;;;;;5054903;28;20040;-72
2021/11/16 11:38:35;;;;;;;28.65;17.95;;;12.50;99.90;;;;;;5060385;28;20048;-72
2021/11/16 11:41:55;;;;;;;36.78;23.92;;;12.30;99.90;;;;;;5066421;28;20036;-71
2021/11/16 11:45:28;;;;;;;39.17;24.42;;;12.10;99.90;;;;;;5068919;28;20395;-71
2021/11/16 11:48:32;;;;;;;31.77;19.90;;;11.90;99.90;;;;;;5064903;28;20059;-72
2021/11/16 11:51:38;;;;;;;35.75;21.58;;;12.00;99.90;;;;;;5063423;28;20039;-72
2021/11/16 11:54:42;;;;;;;31.02;20.73;;;11.90;99.90;;;;;;5060238;28;20047;-72
2021/11/16 11:57:47;;;;;;;29.05;18.17;;;12.00;99.90;;;;;;5069545;28;20118;-72
2021/11/16 12:00:55;;;;;;;34.00;19.67;;;11.80;99.90;;;;;;5061363;28;20044;-71
2021/11/16 12:04:00;;;;;;;23.77;16.90;;;11.60;99.90;;;;;;5063431;28;20056;-72
2021/11/16 12:07:05;;;;;;;23.63;16.63;;;11.70;99.90;;;;;;5064868;28;20056;-71
2021/11/16 12:10:10;;;;;;;23.48;15.43;;;11.70;99.90;;;;;;5067412;28;20068;-71
2021/11/16 12:13:22;;;;;;;23.90;14.30;;;12.00;99.90;;;;;;5064663;28;20486;-72
2021/11/16 12:16:30;;;;;;;31.20;17.45;;;12.20;99.90;;;;;;5058912;28;20039;-72
2021/11/16 12:19:39;;;;;;;22.23;14.77;;;12.00;99.90;;;;;;5057719;28;20048;-72
2021/11/16 12:22:48;;;;;;;35.70;16.35;;;11.90;99.90;;;;;;5059087;28;20063;-72
2021/11/16 12:26:06;;;;;;;26.88;16.48;;;12.00;99.90;;;;;;5060262;28;20044;-71
2021/11/16 12:29:16;;;;;;;29.95;17.40;;;11.90;99.90;;;;;;5059312;28;20387;-72
2021/11/16 12:32:27;;;;;;;25.77;15.52;;;12.00;99.90;;;;;;5059858;28;20048;-72
2021/11/16 12:35:32;;;;;;;21.77;13.95;;;12.20;99.90;;;;;;5061421;28;20408;-72
2021/11/16 12:38:39;;;;;;;27.80;14.88;;;12.20;99.90;;;;;;5063661;28;20055;-72
2021/11/16 12:41:51;;;;;;;24.63;16.23;;;12.30;99.90;;;;;;5063335;28;20047;-72
2021/11/16 12:45:00;;;;;;;22.08;15.00;;;12.10;99.90;;;;;;5058989;28;20044;-72
2021/11/16 12:48:05;;;;;;;27.13;15.02;;;12.20;99.90;;;;;;5065997;28;20506;-72
2021/11/16 12:51:16;;;;;;;33.47;17.27;;;12.00;99.90;;;;;;5059552;28;20380;-72
2021/11/16 12:54:27;;;;;;;23.63;16.23;;;11.80;99.90;;;;;;5061336;28;20048;-72
2021/11/16 12:57:35;;;;;;;33.85;19.00;;;11.50;99.90;;;;;;5064766;28;20043;-72
2021/11/16 13:00:40;;;;;;;37.15;19.83;;;11.40;99.90;;;;;;5064103;28;20099;-71
2021/11/16 13:03:54;;;;;;;35.15;21.25;;;11.50;99.90;;;;;;5064058;28;20044;-71
2021/11/16 13:07:29;;;;;;;51.58;22.13;;;11.50;99.90;;;;;;5068648;28;20047;-72
2021/11/16 13:10:44;;;;;;;34.85;17.92;;;11.40;99.90;;;;;;5059049;28;20040;-71
2021/11/16 13:13:48;;;;;;;36.95;20.85;;;11.50;99.90;;;;;;5062491;28;20047;-72
2021/11/16 13:16:52;;;;;;;38.78;23.50;;;11.60;99.90;;;;;;5063068;28;20039;-71
2021/11/16 13:20:04;;;;;;;38.60;23.30;;;11.50;99.90;;;;;;5059481;28;20067;-71
2021/11/16 13:23:22;;;;;;;45.88;26.15;;;11.60;99.90;;;;;;5063475;28;20495;-71
2021/11/16 13:26:49;;;;;;;44.35;26.88;;;11.40;99.90;;;;;;5060594;28;20044;-71
2021/11/16 13:30:24;;;;;;;40.75;21.73;;;11.60;99.90;;;;;;5063781;28;20043;-72
2021/11/16 13:33:50;;;;;;;37.25;23.08;;;11.70;99.90;;;;;;5061967;28;20060;-72
2021/11/16 13:36:59;;;;;;;35.88;20.95;;;11.60;99.90;;;;;;5065293;28;20043;-71
2021/11/16 13:40:14;;;;;;;33.30;19.75;;;11.80;99.90;;;;;;5069131;28;20051;-71
2021/11/16 13:43:19;;;;;;;37.45;23.77;;;11.90;99.90;;;;;;5059074;28;20055;-72
2021/11/16 13:46:25;;;;;;;38.20;24.10;;;11.90;99.90;;;;;;5057679;28;20402;-71
2021/11/16 13:49:53;;;;;;;34.60;21.20;;;11.70;99.90;;;;;;5064063;28;20387;-71
2021/11/16 13:53:07;;;;;;;32.83;20.88;;;11.70;99.90;;;;;;5064981;28;20043;-72
2021/11/16 13:56:15;;;;;;;39.78;23.85;;;11.40;99.90;;;;;;5057584;28;20039;-71
2021/11/16 13:59:20;;;;;;;38.10;22.88;;;11.30;99.90;;;;;;5060661;28;20060;-72
2021/11/16 14:02:26;;;;;;;41.92;24.08;;;11.30;99.90;;;;;;5055098;28;20047;-71
2021/11/16 14:05:42;;;;;;;47.58;28.02;;;11.30;99.90;;;;;;5060171;28;20048;-71
2021/11/16 14:08:48;;;;;;;44.30;24.95;;;11.30;99.90;;;;;;5066757;28;20047;-71
2021/11/16 14:11:57;;;;;;;38.17;23.63;;;11.20;99.90;;;;;;5057863;28;20048;-71
2021/11/16 14:15:05;;;;;;;44.47;26.58;;;11.40;99.90;;;;;;5064135;28;20044;-71
2021/11/16 14:18:14;;;;;;;35.10;21.48;;;11.40;99.90;;;;;;5057058;28;20052;-71
2021/11/16 14:21:21;;;;;;;31.55;20.67;;;11.50;99.90;;;;;;5061389;28;20051;-72
2021/11/16 14:24:34;;;;;;;32.70;20.90;;;11.40;99.90;;;;;;5064612;28;20059;-71
2021/11/16 14:27:39;;;;;;;31.90;20.05;;;11.40;99.90;;;;;;5060691;28;20238;-71
2021/11/16 14:30:44;;;;;;;38.92;21.83;;;11.50;99.90;;;;;;5061976;28;20054;-72
2021/11/16 14:33:55;;;;;;;35.50;21.73;;;11.50;99.90;;;;;;5058844;28;20067;-71
2021/11/16 14:37:00;;;;;;;49.10;28.45;;;11.50;99.90;;;;;;5059826;28;20048;-72
2021/11/16 14:40:15;;;;;;;37.78;22.75;;;11.50;99.90;;;;;;5058284;28;20055;-71
2021/11/16 14:43:22;;;;;;;46.63;25.40;;;11.40;99.90;;;;;;5061611;28;20063;-71
2021/11/16 14:46:27;;;;;;;46.17;28.30;;;11.20;99.90;;;;;;5064089;28;20035;-71
2021/11/16 14:52:55;;;;;;;42.50;25.83;;;11.00;99.90;;;;;;5065300;28;20040;-71
2021/11/16 14:55:59;;;;;;;48.30;26.20;;;11.10;99.90;;;;;;5070074;28;20047;-71
2021/11/16 14:59:13;;;;;;;47.50;28.60;;;11.00;99.90;;;;;;5069654;28;20044;-72
2021/11/16 15:02:19;;;;;;;48.90;28.10;;;11.00;99.90;;;;;;5058280;28;20048;-72
2021/11/16 15:05:23;;;;;;;50.35;27.23;;;11.10;99.90;;;;;;5063746;28;20035;-72
2021/11/16 15:08:29;;;;;;;53.13;30.15;;;11.00;99.90;;;;;;5069265;28;20107;-72
2021/11/16 15:11:33;;;;;;;57.75;33.00;;;10.90;99.90;;;;;;5051870;28;20043;-72
2021/11/16 15:14:46;;;;;;;59.20;33.38;;;10.80;99.90;;;;;;5052781;28;20052;-71
2021/11/16 15:17:51;;;;;;;48.83;28.95;;;10.80;99.90;;;;;;5053892;28;20056;-71
2021/11/16 15:28:02;;;;;;;43.20;24.80;;;10.80;99.90;;;;;;5058434;28;20064;-71
2021/11/16 15:31:11;;;;;;;48.75;26.77;;;10.80;99.90;;;;;;5059157;28;20031;-71
2021/11/16 15:34:17;;;;;;;38.80;22.90;;;10.60;99.90;;;;;;5064574;28;20040;-71
2021/11/16 15:37:29;;;;;;;40.35;23.27;;;10.70;99.90;;;;;;5065729;28;20051;-71
2021/11/16 15:40:34;;;;;;;;;;;10.70;99.90;;;;;;5056097;28;20039;-72
2021/11/16 15:51:09;;;;;;;48.83;25.73;;;10.70;99.90;;;;;;5071794;28;20051;-72
2021/11/16 15:57:37;;;;;;;45.17;24.02;;;10.60;99.90;;;;;;5072602;28;20063;-72
2021/11/16 16:01:11;;;;;;;46.65;26.98;;;10.60;99.90;;;;;;5072815;28;20036;-72
2021/11/16 16:04:19;;;;;;;39.08;21.83;;;10.50;99.90;;;;;;5072599;28;20054;-72
2021/11/16 16:07:23;;;;;;;35.60;19.40;;;10.50;99.90;;;;;;5072230;28;20036;-72
2021/11/16 16:10:39;;;;;;;38.55;21.88;;;10.50;99.90;;;;;;5072616;28;20047;-72
2021/11/16 16:13:45;;;;;;;43.15;22.88;;;10.50;99.90;;;;;;5071446;28;20040;-72
2021/11/16 16:16:51;;;;;;;55.00;21.13;;;10.60;99.90;;;;;;5072550;28;20067;-72
2021/11/16 16:19:57;;;;;;;196.68;30.10;;;10.60;99.90;;;;;;5071905;28;20055;-72
2021/11/16 16:23:01;;;;;;;284.85;30.75;;;10.60;99.90;;;;;;5072371;28;20042;-72
2021/11/16 16:26:05;;;;;;;557.63;43.08;;;10.70;99.90;;;;;;5071192;28;20048;-72
2021/11/16 16:29:10;;;;;;;30.08;18.40;;;10.50;99.90;;;;;;5072284;28;20044;-72
2021/11/16 16:32:18;;;;;;;23.90;14.40;;;10.40;99.90;;;;;;5071852;28;20048;-72
2021/11/16 16:35:22;;;;;;;18.60;11.95;;;10.50;99.90;;;;;;5072373;28;20051;-72
2021/11/16 16:38:28;;;;;;;16.08;10.32;;;10.30;99.90;;;;;;5071609;28;20487;-72